sensor_id;sensor_type;location;lat;lon;timestamp;temperature;humidity
29547;DHT22;40782;47.264;11.330;2023-04-19T00:01:30;10.40;99.90
29547;DHT22;40782;47.264;11.330;2023-04-19T00:03:57;10.40;99.90
29547;DHT22;40782;47.264;11.330;2023-04-19T00:06:24;10.40;99.90
29547;DHT22;40782;47.264;11.330;2023-04-19T00:08:55;10.30;99.90
29547;DHT22;40782;47.264;11.330;2023-04-19T00:11:23;10.30;99.90
29547;DHT22;40782;47.264;11.330;2023-04-19T00:13:50;10.40;99.90
29547;DHT22;40782;47.264;11.330;2023-04-19T00:16:17;10.40;99.90
29547;DHT22;40782;47.264;11.330;2023-04-19T00:18:44;10.40;99.90
29547;DHT22;40782;47.264;11.330;2023-04-19T00:21:13;10.20;99.90
29547;DHT22;40782;47.264;11.330;2023-04-19T00:23:40;10.30;99.90
29547;DHT22;40782;47.264;11.330;2023-04-19T00:26:07;10.20;99.90
29547;DHT22;40782;47.264;11.330;2023-04-19T00:28:37;10.10;99.90
29547;DHT22;40782;47.264;11.330;2023-04-19T00:31:04;10.00;99.90
29547;DHT22;40782;47.264;11.330;2023-04-19T00:33:31;10.10;99.90
29547;DHT22;40782;47.264;11.330;2023-04-19T00:35:58;10.10;99.90
29547;DHT22;40782;47.264;11.330;2023-04-19T00:38:26;10.10;99.90
29547;DHT22;40782;47.264;11.330;2023-04-19T00:40:53;10.10;99.90
29547;DHT22;40782;47.264;11.330;2023-04-19T00:43:20;10.20;99.90
29547;DHT22;40782;47.264;11.330;2023-04-19T00:45:48;10.20;99.90
29547;DHT22;40782;47.264;11.330;2023-04-19T00:48:15;10.10;99.90
29547;DHT22;40782;47.264;11.330;2023-04-19T00:50:42;10.10;99.90
29547;DHT22;40782;47.264;11.330;2023-04-19T00:53:10;10.10;99.90
29547;DHT22;40782;47.264;11.330;2023-04-19T00:55:37;10.10;99.90
29547;DHT22;40782;47.264;11.330;2023-04-19T00:58:05;10.10;99.90
29547;DHT22;40782;47.264;11.330;2023-04-19T01:00:32;10.10;99.90
29547;DHT22;40782;47.264;11.330;2023-04-19T01:03:00;10.10;99.90
29547;DHT22;40782;47.264;11.330;2023-04-19T01:05:28;10.20;99.90
29547;DHT22;40782;47.264;11.330;2023-04-19T01:07:55;10.10;99.90
29547;DHT22;40782;47.264;11.330;2023-04-19T01:10:23;10.10;99.90
29547;DHT22;40782;47.264;11.330;2023-04-19T01:12:50;10.00;99.90
29547;DHT22;40782;47.264;11.330;2023-04-19T01:15:17;10.10;99.90
29547;DHT22;40782;47.264;11.330;2023-04-19T01:17:44;10.00;99.90
29547;DHT22;40782;47.264;11.330;2023-04-19T01:20:12;10.00;99.90
29547;DHT22;40782;47.264;11.330;2023-04-19T01:22:41;10.00;99.90
29547;DHT22;40782;47.264;11.330;2023-04-19T01:25:08;10.00;99.90
29547;DHT22;40782;47.264;11.330;2023-04-19T01:27:36;10.00;99.90
29547;DHT22;40782;47.264;11.330;2023-04-19T01:30:03;10.00;99.90
29547;DHT22;40782;47.264;11.330;2023-04-19T01:32:30;9.90;99.90
29547;DHT22;40782;47.264;11.330;2023-04-19T01:34:57;9.90;99.90
29547;DHT22;40782;47.264;11.330;2023-04-19T01:37:24;9.90;99.90
29547;DHT22;40782;47.264;11.330;2023-04-19T01:39:53;9.80;99.90
29547;DHT22;40782;47.264;11.330;2023-04-19T01:42:20;9.80;99.90
29547;DHT22;40782;47.264;11.330;2023-04-19T01:44:47;9.90;99.90
29547;DHT22;40782;47.264;11.330;2023-04-19T01:47:14;9.90;99.90
29547;DHT22;40782;47.264;11.330;2023-04-19T01:49:41;9.90;99.90
29547;DHT22;40782;47.264;11.330;2023-04-19T01:52:08;9.90;99.90
29547;DHT22;40782;47.264;11.330;2023-04-19T01:54:35;10.00;99.90
29547;DHT22;40782;47.264;11.330;2023-04-19T01:57:03;9.90;99.90
29547;DHT22;40782;47.264;11.330;2023-04-19T01:59:30;9.90;99.90
29547;DHT22;40782;47.264;11.330;2023-04-19T02:01:57;9.90;99.90
29547;DHT22;40782;47.264;11.330;2023-04-19T02:04:24;9.80;1.00
29547;DHT22;40782;47.264;11.330;2023-04-19T02:06:51;9.80;1.00
29547;DHT22;40782;47.264;11.330;2023-04-19T02:09:18;9.80;1.00
29547;DHT22;40782;47.264;11.330;2023-04-19T02:11:46;9.70;1.00
29547;DHT22;40782;47.264;11.330;2023-04-19T02:14:14;9.70;1.00
29547;DHT22;40782;47.264;11.330;2023-04-19T02:16:41;9.70;1.00
29547;DHT22;40782;47.264;11.330;2023-04-19T02:19:08;9.70;1.00
29547;DHT22;40782;47.264;11.330;2023-04-19T02:21:35;9.70;1.00
29547;DHT22;40782;47.264;11.330;2023-04-19T02:24:02;9.70;1.00
29547;DHT22;40782;47.264;11.330;2023-04-19T02:26:30;9.70;1.00
29547;DHT22;40782;47.264;11.330;2023-04-19T02:28:57;9.70;1.00
29547;DHT22;40782;47.264;11.330;2023-04-19T02:31:25;9.70;1.00
29547;DHT22;40782;47.264;11.330;2023-04-19T02:33:52;9.70;1.00
29547;DHT22;40782;47.264;11.330;2023-04-19T02:36:19;9.80;1.00
29547;DHT22;40782;47.264;11.330;2023-04-19T02:38:46;9.80;1.00
29547;DHT22;40782;47.264;11.330;2023-04-19T02:41:13;9.80;1.00
29547;DHT22;40782;47.264;11.330;2023-04-19T02:43:40;9.80;1.00
29547;DHT22;40782;47.264;11.330;2023-04-19T02:46:08;9.80;1.00
29547;DHT22;40782;47.264;11.330;2023-04-19T02:48:37;9.90;1.00
29547;DHT22;40782;47.264;11.330;2023-04-19T02:51:04;9.90;1.00
29547;DHT22;40782;47.264;11.330;2023-04-19T02:53:31;9.90;1.00
29547;DHT22;40782;47.264;11.330;2023-04-19T02:55:58;9.80;1.00
29547;DHT22;40782;47.264;11.330;2023-04-19T02:58:25;9.80;1.00
29547;DHT22;40782;47.264;11.330;2023-04-19T03:00:52;9.80;1.00
29547;DHT22;40782;47.264;11.330;2023-04-19T03:03:19;9.80;1.00
29547;DHT22;40782;47.264;11.330;2023-04-19T03:05:48;9.60;1.00
29547;DHT22;40782;47.264;11.330;2023-04-19T03:08:15;9.60;1.00
29547;DHT22;40782;47.264;11.330;2023-04-19T03:10:42;9.60;1.00
29547;DHT22;40782;47.264;11.330;2023-04-19T03:13:09;9.60;1.00
29547;DHT22;40782;47.264;11.330;2023-04-19T03:15:36;9.60;1.00
29547;DHT22;40782;47.264;11.330;2023-04-19T03:18:03;9.60;1.00
29547;DHT22;40782;47.264;11.330;2023-04-19T03:20:30;9.60;1.00
29547;DHT22;40782;47.264;11.330;2023-04-19T03:22:59;9.70;1.00
29547;DHT22;40782;47.264;11.330;2023-04-19T03:25:26;9.70;1.00
29547;DHT22;40782;47.264;11.330;2023-04-19T03:27:53;9.80;1.00
29547;DHT22;40782;47.264;11.330;2023-04-19T03:30:20;9.70;1.00
29547;DHT22;40782;47.264;11.330;2023-04-19T03:32:47;9.70;1.00
29547;DHT22;40782;47.264;11.330;2023-04-19T03:35:14;9.70;1.00
29547;DHT22;40782;47.264;11.330;2023-04-19T03:37:41;9.50;1.00
29547;DHT22;40782;47.264;11.330;2023-04-19T03:40:09;9.50;1.00
29547;DHT22;40782;47.264;11.330;2023-04-19T03:42:37;9.60;1.00
29547;DHT22;40782;47.264;11.330;2023-04-19T03:45:04;9.50;1.00
29547;DHT22;40782;47.264;11.330;2023-04-19T03:47:31;9.40;1.00
29547;DHT22;40782;47.264;11.330;2023-04-19T03:49:58;9.30;1.00
29547;DHT22;40782;47.264;11.330;2023-04-19T03:52:25;9.40;1.00
29547;DHT22;40782;47.264;11.330;2023-04-19T03:54:52;9.40;1.00
29547;DHT22;40782;47.264;11.330;2023-04-19T03:57:21;9.50;1.00
29547;DHT22;40782;47.264;11.330;2023-04-19T03:59:48;9.60;1.00
29547;DHT22;40782;47.264;11.330;2023-04-19T04:02:15;9.60;1.00
29547;DHT22;40782;47.264;11.330;2023-04-19T04:04:42;9.60;1.00
29547;DHT22;40782;47.264;11.330;2023-04-19T04:07:09;9.70;1.00
29547;DHT22;40782;47.264;11.330;2023-04-19T04:09:36;9.70;1.00
29547;DHT22;40782;47.264;11.330;2023-04-19T04:12:03;9.70;1.00
29547;DHT22;40782;47.264;11.330;2023-04-19T04:14:31;9.70;1.00
29547;DHT22;40782;47.264;11.330;2023-04-19T04:16:58;9.70;1.00
29547;DHT22;40782;47.264;11.330;2023-04-19T04:19:26;9.70;1.00
29547;DHT22;40782;47.264;11.330;2023-04-19T04:21:53;9.70;1.00
29547;DHT22;40782;47.264;11.330;2023-04-19T04:24:20;9.70;1.00
29547;DHT22;40782;47.264;11.330;2023-04-19T04:26:47;9.60;1.00
29547;DHT22;40782;47.264;11.330;2023-04-19T04:29:16;9.60;1.00
29547;DHT22;40782;47.264;11.330;2023-04-19T04:31:44;9.60;1.00
29547;DHT22;40782;47.264;11.330;2023-04-19T04:34:11;9.60;1.00
29547;DHT22;40782;47.264;11.330;2023-04-19T04:36:38;9.60;1.00
29547;DHT22;40782;47.264;11.330;2023-04-19T04:39:06;9.60;1.00
29547;DHT22;40782;47.264;11.330;2023-04-19T04:41:34;9.50;1.00
29547;DHT22;40782;47.264;11.330;2023-04-19T04:44:01;9.50;1.00
29547;DHT22;40782;47.264;11.330;2023-04-19T04:46:29;9.50;1.00
29547;DHT22;40782;47.264;11.330;2023-04-19T04:48:58;9.60;1.00
29547;DHT22;40782;47.264;11.330;2023-04-19T04:51:25;9.60;1.00
29547;DHT22;40782;47.264;11.330;2023-04-19T04:53:52;9.70;1.00
29547;DHT22;40782;47.264;11.330;2023-04-19T04:56:19;9.60;1.00
29547;DHT22;40782;47.264;11.330;2023-04-19T04:58:46;9.40;1.00
29547;DHT22;40782;47.264;11.330;2023-04-19T05:01:13;9.40;1.00
29547;DHT22;40782;47.264;11.330;2023-04-19T05:03:43;9.50;1.00
29547;DHT22;40782;47.264;11.330;2023-04-19T05:06:12;9.40;1.00
29547;DHT22;40782;47.264;11.330;2023-04-19T05:08:39;9.40;1.00
29547;DHT22;40782;47.264;11.330;2023-04-19T05:11:06;9.50;1.00
29547;DHT22;40782;47.264;11.330;2023-04-19T05:13:33;9.60;1.00
29547;DHT22;40782;47.264;11.330;2023-04-19T05:16:01;9.60;1.00
29547;DHT22;40782;47.264;11.330;2023-04-19T05:18:28;9.60;1.00
29547;DHT22;40782;47.264;11.330;2023-04-19T05:20:55;9.60;1.00
29547;DHT22;40782;47.264;11.330;2023-04-19T05:23:24;9.70;1.00
29547;DHT22;40782;47.264;11.330;2023-04-19T05:25:51;9.60;1.00
29547;DHT22;40782;47.264;11.330;2023-04-19T05:28:18;9.40;1.00
29547;DHT22;40782;47.264;11.330;2023-04-19T05:30:45;9.30;1.00
29547;DHT22;40782;47.264;11.330;2023-04-19T05:33:12;9.20;1.00
29547;DHT22;40782;47.264;11.330;2023-04-19T05:35:39;9.20;1.00
29547;DHT22;40782;47.264;11.330;2023-04-19T05:38:06;9.40;1.00
29547;DHT22;40782;47.264;11.330;2023-04-19T05:40:34;9.50;1.00
29547;DHT22;40782;47.264;11.330;2023-04-19T05:43:01;9.50;1.00
29547;DHT22;40782;47.264;11.330;2023-04-19T05:45:28;9.60;1.00
29547;DHT22;40782;47.264;11.330;2023-04-19T05:47:55;9.80;1.00
29547;DHT22;40782;47.264;11.330;2023-04-19T05:50:22;9.80;1.00
29547;DHT22;40782;47.264;11.330;2023-04-19T05:52:49;9.90;1.00
29547;DHT22;40782;47.264;11.330;2023-04-19T05:55:16;9.80;1.00
29547;DHT22;40782;47.264;11.330;2023-04-19T05:57:45;9.80;1.00
29547;DHT22;40782;47.264;11.330;2023-04-19T06:00:12;9.90;1.00
29547;DHT22;40782;47.264;11.330;2023-04-19T06:02:40;10.00;1.00
29547;DHT22;40782;47.264;11.330;2023-04-19T06:05:08;10.00;1.00
29547;DHT22;40782;47.264;11.330;2023-04-19T06:07:35;10.00;1.00
29547;DHT22;40782;47.264;11.330;2023-04-19T06:10:03;9.90;1.00
29547;DHT22;40782;47.264;11.330;2023-04-19T06:12:30;9.90;1.00
29547;DHT22;40782;47.264;11.330;2023-04-19T06:14:59;9.90;1.00
29547;DHT22;40782;47.264;11.330;2023-04-19T06:17:26;10.00;1.00
29547;DHT22;40782;47.264;11.330;2023-04-19T06:19:53;10.20;1.00
29547;DHT22;40782;47.264;11.330;2023-04-19T06:22:20;10.30;1.00
29547;DHT22;40782;47.264;11.330;2023-04-19T06:24:48;10.20;1.00
29547;DHT22;40782;47.264;11.330;2023-04-19T06:27:15;10.20;1.00
29547;DHT22;40782;47.264;11.330;2023-04-19T06:29:42;10.30;1.00
29547;DHT22;40782;47.264;11.330;2023-04-19T06:32:10;10.30;1.00
29547;DHT22;40782;47.264;11.330;2023-04-19T06:34:37;10.40;1.00
29547;DHT22;40782;47.264;11.330;2023-04-19T06:37:04;10.40;1.00
29547;DHT22;40782;47.264;11.330;2023-04-19T06:39:32;10.50;1.00
29547;DHT22;40782;47.264;11.330;2023-04-19T06:41:59;10.60;1.00
29547;DHT22;40782;47.264;11.330;2023-04-19T06:44:26;10.60;1.00
29547;DHT22;40782;47.264;11.330;2023-04-19T06:46:53;10.70;1.00
29547;DHT22;40782;47.264;11.330;2023-04-19T06:49:22;10.70;1.00
29547;DHT22;40782;47.264;11.330;2023-04-19T06:51:49;10.60;1.00
29547;DHT22;40782;47.264;11.330;2023-04-19T06:54:16;10.80;1.00
29547;DHT22;40782;47.264;11.330;2023-04-19T06:56:43;10.70;1.00
29547;DHT22;40782;47.264;11.330;2023-04-19T06:59:11;10.70;1.00
29547;DHT22;40782;47.264;11.330;2023-04-19T07:01:38;10.80;1.00
29547;DHT22;40782;47.264;11.330;2023-04-19T07:04:06;10.90;1.00
29547;DHT22;40782;47.264;11.330;2023-04-19T07:06:34;10.90;1.00
29547;DHT22;40782;47.264;11.330;2023-04-19T07:09:02;10.90;1.00
29547;DHT22;40782;47.264;11.330;2023-04-19T07:11:29;10.90;1.00
29547;DHT22;40782;47.264;11.330;2023-04-19T07:13:56;10.90;1.00
29547;DHT22;40782;47.264;11.330;2023-04-19T07:16:24;11.10;1.00
29547;DHT22;40782;47.264;11.330;2023-04-19T07:18:51;11.20;1.00
29547;DHT22;40782;47.264;11.330;2023-04-19T07:21:18;11.20;1.00
29547;DHT22;40782;47.264;11.330;2023-04-19T07:23:47;11.10;1.00
29547;DHT22;40782;47.264;11.330;2023-04-19T07:26:14;11.10;1.00
29547;DHT22;40782;47.264;11.330;2023-04-19T07:28:41;11.30;1.00
29547;DHT22;40782;47.264;11.330;2023-04-19T07:31:13;11.30;1.00
29547;DHT22;40782;47.264;11.330;2023-04-19T07:33:40;11.40;1.00
29547;DHT22;40782;47.264;11.330;2023-04-19T07:36:07;11.40;1.00
29547;DHT22;40782;47.264;11.330;2023-04-19T07:38:34;11.40;1.00
29547;DHT22;40782;47.264;11.330;2023-04-19T07:41:02;11.40;1.00
29547;DHT22;40782;47.264;11.330;2023-04-19T07:43:30;11.20;1.00
29547;DHT22;40782;47.264;11.330;2023-04-19T07:45:57;11.20;1.00
29547;DHT22;40782;47.264;11.330;2023-04-19T07:48:24;11.20;1.00
29547;DHT22;40782;47.264;11.330;2023-04-19T07:50:51;11.20;1.00
29547;DHT22;40782;47.264;11.330;2023-04-19T07:53:18;11.30;1.00
29547;DHT22;40782;47.264;11.330;2023-04-19T07:55:45;11.50;1.00
29547;DHT22;40782;47.264;11.330;2023-04-19T07:58:14;11.60;1.00
29547;DHT22;40782;47.264;11.330;2023-04-19T08:00:41;11.80;1.00
29547;DHT22;40782;47.264;11.330;2023-04-19T08:03:08;11.90;1.00
29547;DHT22;40782;47.264;11.330;2023-04-19T08:05:35;12.00;1.00
29547;DHT22;40782;47.264;11.330;2023-04-19T08:08:02;12.10;99.90
29547;DHT22;40782;47.264;11.330;2023-04-19T08:10:29;12.20;99.90
29547;DHT22;40782;47.264;11.330;2023-04-19T08:12:57;12.00;99.90
29547;DHT22;40782;47.264;11.330;2023-04-19T08:15:25;11.90;99.90
29547;DHT22;40782;47.264;11.330;2023-04-19T08:17:52;11.90;99.90
29547;DHT22;40782;47.264;11.330;2023-04-19T08:20:19;11.90;99.90
29547;DHT22;40782;47.264;11.330;2023-04-19T08:22:47;12.10;99.90
29547;DHT22;40782;47.264;11.330;2023-04-19T08:25:14;12.30;99.90
29547;DHT22;40782;47.264;11.330;2023-04-19T08:27:42;12.30;99.90
29547;DHT22;40782;47.264;11.330;2023-04-19T08:30:09;12.10;99.90
29547;DHT22;40782;47.264;11.330;2023-04-19T08:32:38;12.40;99.90
29547;DHT22;40782;47.264;11.330;2023-04-19T08:35:05;12.60;99.90
29547;DHT22;40782;47.264;11.330;2023-04-19T08:37:33;12.70;99.90
29547;DHT22;40782;47.264;11.330;2023-04-19T08:40:00;12.70;99.90
29547;DHT22;40782;47.264;11.330;2023-04-19T08:42:28;12.70;99.90
29547;DHT22;40782;47.264;11.330;2023-04-19T08:44:57;12.50;99.90
29547;DHT22;40782;47.264;11.330;2023-04-19T08:47:27;12.30;99.90
29547;DHT22;40782;47.264;11.330;2023-04-19T08:49:56;12.40;99.90
29547;DHT22;40782;47.264;11.330;2023-04-19T08:52:26;12.50;99.90
29547;DHT22;40782;47.264;11.330;2023-04-19T08:54:53;12.70;99.90
29547;DHT22;40782;47.264;11.330;2023-04-19T08:57:20;12.80;99.90
29547;DHT22;40782;47.264;11.330;2023-04-19T08:59:47;12.60;99.90
29547;DHT22;40782;47.264;11.330;2023-04-19T09:02:20;12.60;99.90
29547;DHT22;40782;47.264;11.330;2023-04-19T09:04:47;12.90;99.90
29547;DHT22;40782;47.264;11.330;2023-04-19T09:07:23;13.00;99.90
29547;DHT22;40782;47.264;11.330;2023-04-19T09:10:03;13.10;99.90
29547;DHT22;40782;47.264;11.330;2023-04-19T09:12:30;13.20;99.90
29547;DHT22;40782;47.264;11.330;2023-04-19T09:14:57;13.10;99.90
29547;DHT22;40782;47.264;11.330;2023-04-19T09:17:24;13.30;99.90
29547;DHT22;40782;47.264;11.330;2023-04-19T09:19:51;13.20;99.90
29547;DHT22;40782;47.264;11.330;2023-04-19T09:22:18;13.30;99.90
29547;DHT22;40782;47.264;11.330;2023-04-19T09:24:47;13.60;99.90
29547;DHT22;40782;47.264;11.330;2023-04-19T09:27:15;13.60;99.90
29547;DHT22;40782;47.264;11.330;2023-04-19T09:29:51;13.60;99.90
29547;DHT22;40782;47.264;11.330;2023-04-19T09:32:18;13.70;99.90
29547;DHT22;40782;47.264;11.330;2023-04-19T09:34:49;13.90;99.90
29547;DHT22;40782;47.264;11.330;2023-04-19T09:37:16;13.80;99.90
29547;DHT22;40782;47.264;11.330;2023-04-19T09:39:43;13.80;99.90
29547;DHT22;40782;47.264;11.330;2023-04-19T09:42:12;13.50;99.90
29547;DHT22;40782;47.264;11.330;2023-04-19T09:44:39;13.80;99.90
29547;DHT22;40782;47.264;11.330;2023-04-19T09:47:20;14.00;99.90
29547;DHT22;40782;47.264;11.330;2023-04-19T09:49:47;14.20;99.90
29547;DHT22;40782;47.264;11.330;2023-04-19T09:52:15;14.10;99.90
29547;DHT22;40782;47.264;11.330;2023-04-19T09:54:42;13.90;99.90
29547;DHT22;40782;47.264;11.330;2023-04-19T09:57:12;14.00;99.90
29547;DHT22;40782;47.264;11.330;2023-04-19T09:59:41;14.10;99.90
29547;DHT22;40782;47.264;11.330;2023-04-19T10:02:08;14.00;99.90
29547;DHT22;40782;47.264;11.330;2023-04-19T10:04:36;14.10;99.90
29547;DHT22;40782;47.264;11.330;2023-04-19T10:07:04;14.30;99.90
29547;DHT22;40782;47.264;11.330;2023-04-19T10:09:32;14.50;99.90
29547;DHT22;40782;47.264;11.330;2023-04-19T10:12:01;14.60;99.90
29547;DHT22;40782;47.264;11.330;2023-04-19T10:14:30;14.70;99.90
29547;DHT22;40782;47.264;11.330;2023-04-19T10:17:01;14.40;99.90
29547;DHT22;40782;47.264;11.330;2023-04-19T10:19:28;14.50;99.90
29547;DHT22;40782;47.264;11.330;2023-04-19T10:21:55;14.60;99.90
29547;DHT22;40782;47.264;11.330;2023-04-19T10:24:22;14.40;99.90
29547;DHT22;40782;47.264;11.330;2023-04-19T10:29:55;14.30;99.90
29547;DHT22;40782;47.264;11.330;2023-04-19T10:32:23;14.60;99.90
29547;DHT22;40782;47.264;11.330;2023-04-19T10:34:51;14.80;99.90
29547;DHT22;40782;47.264;11.330;2023-04-19T10:37:20;14.90;99.90
29547;DHT22;40782;47.264;11.330;2023-04-19T10:39:47;14.60;99.90
29547;DHT22;40782;47.264;11.330;2023-04-19T10:42:15;14.60;99.90
29547;DHT22;40782;47.264;11.330;2023-04-19T10:44:46;14.80;99.90
29547;DHT22;40782;47.264;11.330;2023-04-19T10:47:42;14.80;99.90
29547;DHT22;40782;47.264;11.330;2023-04-19T10:50:09;14.80;99.90
29547;DHT22;40782;47.264;11.330;2023-04-19T10:52:36;15.00;99.90
29547;DHT22;40782;47.264;11.330;2023-04-19T10:55:04;15.30;99.90
29547;DHT22;40782;47.264;11.330;2023-04-19T11:00:17;15.20;99.90
29547;DHT22;40782;47.264;11.330;2023-04-19T11:02:45;15.20;99.90
29547;DHT22;40782;47.264;11.330;2023-04-19T11:05:12;15.30;99.90
29547;DHT22;40782;47.264;11.330;2023-04-19T11:07:40;15.20;99.90
29547;DHT22;40782;47.264;11.330;2023-04-19T11:10:08;15.60;99.90
29547;DHT22;40782;47.264;11.330;2023-04-19T11:12:35;15.70;99.90
29547;DHT22;40782;47.264;11.330;2023-04-19T11:15:04;16.10;99.90
29547;DHT22;40782;47.264;11.330;2023-04-19T11:17:33;16.10;99.90
29547;DHT22;40782;47.264;11.330;2023-04-19T11:20:05;16.20;99.90
29547;DHT22;40782;47.264;11.330;2023-04-19T11:22:33;16.20;99.90
29547;DHT22;40782;47.264;11.330;2023-04-19T11:25:04;16.50;99.90
29547;DHT22;40782;47.264;11.330;2023-04-19T11:27:31;16.40;99.90
29547;DHT22;40782;47.264;11.330;2023-04-19T11:30:01;17.00;99.90
29547;DHT22;40782;47.264;11.330;2023-04-19T11:32:28;17.60;99.90
29547;DHT22;40782;47.264;11.330;2023-04-19T11:34:55;17.80;99.90
29547;DHT22;40782;47.264;11.330;2023-04-19T11:37:24;18.10;99.90
29547;DHT22;40782;47.264;11.330;2023-04-19T11:39:51;18.50;99.90
29547;DHT22;40782;47.264;11.330;2023-04-19T11:42:18;18.60;99.90
29547;DHT22;40782;47.264;11.330;2023-04-19T11:44:49;18.40;99.90
29547;DHT22;40782;47.264;11.330;2023-04-19T11:47:17;18.10;99.90
29547;DHT22;40782;47.264;11.330;2023-04-19T11:49:44;18.10;99.90
29547;DHT22;40782;47.264;11.330;2023-04-19T11:52:11;18.70;99.90
29547;DHT22;40782;47.264;11.330;2023-04-19T11:54:46;18.90;99.90
29547;DHT22;40782;47.264;11.330;2023-04-19T11:57:14;19.40;99.90
29547;DHT22;40782;47.264;11.330;2023-04-19T12:00:00;19.70;99.90
29547;DHT22;40782;47.264;11.330;2023-04-19T12:02:28;19.50;99.90
29547;DHT22;40782;47.264;11.330;2023-04-19T12:04:55;19.80;99.90
29547;DHT22;40782;47.264;11.330;2023-04-19T12:07:22;19.70;99.90
29547;DHT22;40782;47.264;11.330;2023-04-19T12:09:50;19.80;99.90
29547;DHT22;40782;47.264;11.330;2023-04-19T12:12:30;19.80;99.90
29547;DHT22;40782;47.264;11.330;2023-04-19T12:14:57;20.10;99.90
29547;DHT22;40782;47.264;11.330;2023-04-19T12:17:24;20.20;99.90
29547;DHT22;40782;47.264;11.330;2023-04-19T12:19:51;20.00;99.90
29547;DHT22;40782;47.264;11.330;2023-04-19T12:22:18;20.10;99.90
29547;DHT22;40782;47.264;11.330;2023-04-19T12:24:46;20.00;99.90
29547;DHT22;40782;47.264;11.330;2023-04-19T12:27:18;19.90;99.90
29547;DHT22;40782;47.264;11.330;2023-04-19T12:29:45;19.60;99.90
29547;DHT22;40782;47.264;11.330;2023-04-19T12:32:12;19.70;99.90
29547;DHT22;40782;47.264;11.330;2023-04-19T12:34:40;19.60;99.90
29547;DHT22;40782;47.264;11.330;2023-04-19T12:37:07;19.80;99.90
29547;DHT22;40782;47.264;11.330;2023-04-19T12:39:34;19.70;99.90
29547;DHT22;40782;47.264;11.330;2023-04-19T12:42:01;19.60;99.90
29547;DHT22;40782;47.264;11.330;2023-04-19T12:44:29;19.10;99.90
29547;DHT22;40782;47.264;11.330;2023-04-19T12:46:56;18.70;99.90
29547;DHT22;40782;47.264;11.330;2023-04-19T12:49:23;18.70;99.90
29547;DHT22;40782;47.264;11.330;2023-04-19T12:51:50;18.60;99.90
29547;DHT22;40782;47.264;11.330;2023-04-19T12:54:17;18.90;99.90
29547;DHT22;40782;47.264;11.330;2023-04-19T12:56:45;18.80;99.90
29547;DHT22;40782;47.264;11.330;2023-04-19T12:59:12;18.80;99.90
29547;DHT22;40782;47.264;11.330;2023-04-19T13:01:40;18.80;99.90
29547;DHT22;40782;47.264;11.330;2023-04-19T13:04:07;18.60;99.90
29547;DHT22;40782;47.264;11.330;2023-04-19T13:06:36;18.40;99.90
29547;DHT22;40782;47.264;11.330;2023-04-19T13:09:04;17.90;99.90
29547;DHT22;40782;47.264;11.330;2023-04-19T13:11:31;18.00;99.90
29547;DHT22;40782;47.264;11.330;2023-04-19T13:13:58;17.90;99.90
29547;DHT22;40782;47.264;11.330;2023-04-19T13:16:25;17.80;99.90
29547;DHT22;40782;47.264;11.330;2023-04-19T13:18:54;17.80;99.90
29547;DHT22;40782;47.264;11.330;2023-04-19T13:21:21;17.70;99.90
29547;DHT22;40782;47.264;11.330;2023-04-19T13:23:48;17.90;99.90
29547;DHT22;40782;47.264;11.330;2023-04-19T13:26:15;17.80;99.90
29547;DHT22;40782;47.264;11.330;2023-04-19T13:28:43;17.80;99.90
29547;DHT22;40782;47.264;11.330;2023-04-19T13:31:10;17.80;99.90
29547;DHT22;40782;47.264;11.330;2023-04-19T13:33:37;17.50;99.90
29547;DHT22;40782;47.264;11.330;2023-04-19T13:36:06;17.40;99.90
29547;DHT22;40782;47.264;11.330;2023-04-19T13:38:33;17.20;99.90
29547;DHT22;40782;47.264;11.330;2023-04-19T13:41:01;17.20;99.90
29547;DHT22;40782;47.264;11.330;2023-04-19T13:43:28;17.30;99.90
29547;DHT22;40782;47.264;11.330;2023-04-19T13:45:55;17.40;99.90
29547;DHT22;40782;47.264;11.330;2023-04-19T13:48:22;17.80;99.90
29547;DHT22;40782;47.264;11.330;2023-04-19T13:50:51;18.10;99.90
29547;DHT22;40782;47.264;11.330;2023-04-19T13:53:20;18.50;99.90
29547;DHT22;40782;47.264;11.330;2023-04-19T13:55:47;18.60;99.90
29547;DHT22;40782;47.264;11.330;2023-04-19T13:58:15;18.30;99.90
29547;DHT22;40782;47.264;11.330;2023-04-19T14:00:42;18.00;99.90
29547;DHT22;40782;47.264;11.330;2023-04-19T14:03:09;17.70;99.90
29547;DHT22;40782;47.264;11.330;2023-04-19T14:05:36;17.40;99.90
29547;DHT22;40782;47.264;11.330;2023-04-19T14:08:03;17.20;99.90
29547;DHT22;40782;47.264;11.330;2023-04-19T14:10:32;17.00;99.90
29547;DHT22;40782;47.264;11.330;2023-04-19T14:12:59;16.90;99.90
29547;DHT22;40782;47.264;11.330;2023-04-19T14:15:26;16.80;99.90
29547;DHT22;40782;47.264;11.330;2023-04-19T14:17:53;16.70;99.90
29547;DHT22;40782;47.264;11.330;2023-04-19T14:20:21;16.50;99.90
29547;DHT22;40782;47.264;11.330;2023-04-19T14:22:48;16.50;99.90
29547;DHT22;40782;47.264;11.330;2023-04-19T14:25:15;16.50;99.90
29547;DHT22;40782;47.264;11.330;2023-04-19T14:27:44;16.60;99.90
29547;DHT22;40782;47.264;11.330;2023-04-19T14:30:11;16.60;99.90
29547;DHT22;40782;47.264;11.330;2023-04-19T14:32:38;16.50;99.90
29547;DHT22;40782;47.264;11.330;2023-04-19T14:35:05;16.30;99.90
29547;DHT22;40782;47.264;11.330;2023-04-19T14:37:35;16.30;99.90
29547;DHT22;40782;47.264;11.330;2023-04-19T14:40:02;16.10;99.90
29547;DHT22;40782;47.264;11.330;2023-04-19T14:42:30;15.80;99.90
29547;DHT22;40782;47.264;11.330;2023-04-19T14:44:58;15.70;99.90
29547;DHT22;40782;47.264;11.330;2023-04-19T14:47:25;15.40;99.90
29547;DHT22;40782;47.264;11.330;2023-04-19T14:49:52;15.30;99.90
29547;DHT22;40782;47.264;11.330;2023-04-19T14:52:19;15.20;99.90
29547;DHT22;40782;47.264;11.330;2023-04-19T14:54:46;15.00;99.90
29547;DHT22;40782;47.264;11.330;2023-04-19T14:57:13;14.80;99.90
29547;DHT22;40782;47.264;11.330;2023-04-19T14:59:40;14.60;99.90
29547;DHT22;40782;47.264;11.330;2023-04-19T15:02:09;14.60;99.90
29547;DHT22;40782;47.264;11.330;2023-04-19T15:04:37;14.50;99.90
29547;DHT22;40782;47.264;11.330;2023-04-19T15:07:04;14.40;99.90
29547;DHT22;40782;47.264;11.330;2023-04-19T15:09:31;14.20;99.90
29547;DHT22;40782;47.264;11.330;2023-04-19T15:11:58;14.10;99.90
29547;DHT22;40782;47.264;11.330;2023-04-19T15:14:25;14.10;99.90
29547;DHT22;40782;47.264;11.330;2023-04-19T15:16:52;14.00;99.90
29547;DHT22;40782;47.264;11.330;2023-04-19T15:19:21;14.00;99.90
29547;DHT22;40782;47.264;11.330;2023-04-19T15:21:48;13.90;99.90
29547;DHT22;40782;47.264;11.330;2023-04-19T15:24:15;13.90;99.90
29547;DHT22;40782;47.264;11.330;2023-04-19T15:26:42;13.90;99.90
29547;DHT22;40782;47.264;11.330;2023-04-19T15:29:09;13.90;99.90
29547;DHT22;40782;47.264;11.330;2023-04-19T15:31:36;13.90;99.90
29547;DHT22;40782;47.264;11.330;2023-04-19T15:34:03;13.80;99.90